sensor_id;sensor_type;location;lat;lon;timestamp;P1;durP1;ratioP1;P2;durP2;ratioP2
5519;SDS011;2782;52.362;10.012;2022-09-16T00:01:43;1.70;;;1.03;;
5519;SDS011;2782;52.362;10.012;2022-09-16T00:08:26;3.63;;;1.03;;
5519;SDS011;2782;52.362;10.012;2022-09-16T00:15:08;1.57;;;0.90;;
5519;SDS011;2782;52.362;10.012;2022-09-16T00:21:51;1.90;;;0.83;;
5519;SDS011;2782;52.362;10.012;2022-09-16T00:28:33;2.90;;;0.87;;
5519;SDS011;2782;52.362;10.012;2022-09-16T00:35:15;3.13;;;1.40;;
5519;SDS011;2782;52.362;10.012;2022-09-16T00:41:57;3.17;;;0.80;;
5519;SDS011;2782;52.362;10.012;2022-09-16T00:48:40;2.47;;;0.70;;
5519;SDS011;2782;52.362;10.012;2022-09-16T00:55:23;0.87;;;0.50;;
5519;SDS011;2782;52.362;10.012;2022-09-16T01:02:08;0.87;;;0.40;;
5519;SDS011;2782;52.362;10.012;2022-09-16T01:08:54;2.63;;;0.50;;
5519;SDS011;2782;52.362;10.012;2022-09-16T01:15:38;0.60;;;0.33;;
5519;SDS011;2782;52.362;10.012;2022-09-16T01:22:27;1.70;;;0.40;;
5519;SDS011;2782;52.362;10.012;2022-09-16T01:29:28;0.80;;;0.40;;
5519;SDS011;2782;52.362;10.012;2022-09-16T01:36:27;0.70;;;0.40;;
5519;SDS011;2782;52.362;10.012;2022-09-16T01:43:16;1.53;;;0.50;;
5519;SDS011;2782;52.362;10.012;2022-09-16T01:50:02;2.37;;;0.50;;
5519;SDS011;2782;52.362;10.012;2022-09-16T01:56:51;1.10;;;0.60;;
5519;SDS011;2782;52.362;10.012;2022-09-16T02:03:56;1.47;;;0.40;;
5519;SDS011;2782;52.362;10.012;2022-09-16T02:10:40;1.47;;;0.40;;
5519;SDS011;2782;52.362;10.012;2022-09-16T02:17:29;0.67;;;0.30;;
5519;SDS011;2782;52.362;10.012;2022-09-16T02:24:17;0.70;;;0.40;;
5519;SDS011;2782;52.362;10.012;2022-09-16T02:31:04;1.30;;;0.43;;
5519;SDS011;2782;52.362;10.012;2022-09-16T02:37:54;1.03;;;0.40;;
5519;SDS011;2782;52.362;10.012;2022-09-16T02:44:40;1.13;;;0.40;;
5519;SDS011;2782;52.362;10.012;2022-09-16T02:51:27;1.23;;;0.30;;
5519;SDS011;2782;52.362;10.012;2022-09-16T02:58:17;0.73;;;0.30;;
5519;SDS011;2782;52.362;10.012;2022-09-16T03:05:00;2.23;;;0.30;;
5519;SDS011;2782;52.362;10.012;2022-09-16T03:11:59;0.90;;;0.50;;
5519;SDS011;2782;52.362;10.012;2022-09-16T03:18:54;0.60;;;0.30;;
5519;SDS011;2782;52.362;10.012;2022-09-16T03:25:43;0.60;;;0.30;;
5519;SDS011;2782;52.362;10.012;2022-09-16T03:32:30;0.97;;;0.40;;
5519;SDS011;2782;52.362;10.012;2022-09-16T03:39:17;1.13;;;0.40;;
5519;SDS011;2782;52.362;10.012;2022-09-16T03:46:01;1.90;;;0.47;;
5519;SDS011;2782;52.362;10.012;2022-09-16T03:52:42;0.93;;;0.53;;
5519;SDS011;2782;52.362;10.012;2022-09-16T03:59:25;0.80;;;0.30;;
5519;SDS011;2782;52.362;10.012;2022-09-16T04:06:08;0.70;;;0.30;;
5519;SDS011;2782;52.362;10.012;2022-09-16T04:12:49;0.60;;;0.20;;
5519;SDS011;2782;52.362;10.012;2022-09-16T04:19:32;0.60;;;0.30;;
5519;SDS011;2782;52.362;10.012;2022-09-16T04:26:14;0.50;;;0.20;;
5519;SDS011;2782;52.362;10.012;2022-09-16T04:32:57;0.53;;;0.30;;
5519;SDS011;2782;52.362;10.012;2022-09-16T04:39:40;0.50;;;0.30;;
5519;SDS011;2782;52.362;10.012;2022-09-16T04:46:22;0.80;;;0.30;;
5519;SDS011;2782;52.362;10.012;2022-09-16T04:53:04;1.60;;;0.40;;
5519;SDS011;2782;52.362;10.012;2022-09-16T04:59:47;3.53;;;0.90;;
5519;SDS011;2782;52.362;10.012;2022-09-16T05:06:29;5.13;;;0.93;;
5519;SDS011;2782;52.362;10.012;2022-09-16T05:13:12;4.40;;;0.63;;
5519;SDS011;2782;52.362;10.012;2022-09-16T05:19:55;6.20;;;0.63;;
5519;SDS011;2782;52.362;10.012;2022-09-16T05:26:37;3.83;;;0.57;;
5519;SDS011;2782;52.362;10.012;2022-09-16T05:33:20;2.77;;;0.50;;
5519;SDS011;2782;52.362;10.012;2022-09-16T05:40:04;4.20;;;0.60;;
5519;SDS011;2782;52.362;10.012;2022-09-16T05:46:46;4.17;;;0.57;;
5519;SDS011;2782;52.362;10.012;2022-09-16T05:53:29;9.30;;;1.00;;
5519;SDS011;2782;52.362;10.012;2022-09-16T06:00:14;4.80;;;0.50;;
5519;SDS011;2782;52.362;10.012;2022-09-16T06:06:56;4.53;;;0.70;;
5519;SDS011;2782;52.362;10.012;2022-09-16T06:13:38;6.97;;;0.73;;
5519;SDS011;2782;52.362;10.012;2022-09-16T06:20:21;4.13;;;0.60;;
5519;SDS011;2782;52.362;10.012;2022-09-16T06:27:03;8.30;;;0.40;;
5519;SDS011;2782;52.362;10.012;2022-09-16T06:33:45;5.17;;;0.97;;
5519;SDS011;2782;52.362;10.012;2022-09-16T06:40:30;9.40;;;0.60;;
5519;SDS011;2782;52.362;10.012;2022-09-16T06:47:12;9.13;;;0.87;;
5519;SDS011;2782;52.362;10.012;2022-09-16T06:53:54;6.07;;;0.87;;
5519;SDS011;2782;52.362;10.012;2022-09-16T07:00:40;4.47;;;0.60;;
5519;SDS011;2782;52.362;10.012;2022-09-16T07:07:22;3.27;;;0.47;;
5519;SDS011;2782;52.362;10.012;2022-09-16T07:14:04;1.80;;;0.40;;
5519;SDS011;2782;52.362;10.012;2022-09-16T07:20:46;5.53;;;0.60;;
5519;SDS011;2782;52.362;10.012;2022-09-16T07:27:28;1.90;;;0.27;;
5519;SDS011;2782;52.362;10.012;2022-09-16T07:34:10;2.87;;;0.37;;
5519;SDS011;2782;52.362;10.012;2022-09-16T07:40:54;1.63;;;0.40;;
5519;SDS011;2782;52.362;10.012;2022-09-16T07:47:36;1.10;;;0.37;;
5519;SDS011;2782;52.362;10.012;2022-09-16T07:54:18;1.20;;;0.47;;
5519;SDS011;2782;52.362;10.012;2022-09-16T08:01:01;0.90;;;0.20;;
5519;SDS011;2782;52.362;10.012;2022-09-16T08:07:44;1.60;;;0.20;;
5519;SDS011;2782;52.362;10.012;2022-09-16T08:14:25;1.33;;;0.40;;
5519;SDS011;2782;52.362;10.012;2022-09-16T08:21:09;1.33;;;0.30;;
5519;SDS011;2782;52.362;10.012;2022-09-16T08:27:52;2.23;;;0.30;;
5519;SDS011;2782;52.362;10.012;2022-09-16T08:34:34;2.67;;;0.30;;
5519;SDS011;2782;52.362;10.012;2022-09-16T08:41:23;0.80;;;0.30;;
5519;SDS011;2782;52.362;10.012;2022-09-16T08:48:15;0.70;;;0.20;;
5519;SDS011;2782;52.362;10.012;2022-09-16T08:55:05;0.73;;;0.20;;
5519;SDS011;2782;52.362;10.012;2022-09-16T09:01:54;1.23;;;0.20;;
5519;SDS011;2782;52.362;10.012;2022-09-16T09:08:44;2.60;;;0.40;;
5519;SDS011;2782;52.362;10.012;2022-09-16T09:15:34;0.90;;;0.20;;
5519;SDS011;2782;52.362;10.012;2022-09-16T09:29:38;0.50;;;0.20;;
5519;SDS011;2782;52.362;10.012;2022-09-16T09:36:33;0.60;;;0.20;;
5519;SDS011;2782;52.362;10.012;2022-09-16T09:43:27;3.53;;;0.20;;
5519;SDS011;2782;52.362;10.012;2022-09-16T09:50:14;1.70;;;0.20;;
5519;SDS011;2782;52.362;10.012;2022-09-16T09:57:00;0.80;;;0.33;;
5519;SDS011;2782;52.362;10.012;2022-09-16T10:03:48;1.23;;;0.20;;
5519;SDS011;2782;52.362;10.012;2022-09-16T10:10:32;0.90;;;0.20;;
5519;SDS011;2782;52.362;10.012;2022-09-16T10:17:15;0.73;;;0.20;;
5519;SDS011;2782;52.362;10.012;2022-09-16T10:23:59;2.20;;;0.27;;
5519;SDS011;2782;52.362;10.012;2022-09-16T10:30:41;3.57;;;0.30;;
5519;SDS011;2782;52.362;10.012;2022-09-16T10:37:26;0.93;;;0.23;;
5519;SDS011;2782;52.362;10.012;2022-09-16T10:44:13;2.30;;;0.30;;
5519;SDS011;2782;52.362;10.012;2022-09-16T10:50:58;3.90;;;0.80;;
5519;SDS011;2782;52.362;10.012;2022-09-16T10:57:41;4.97;;;1.03;;
5519;SDS011;2782;52.362;10.012;2022-09-16T11:04:27;1.13;;;0.50;;
5519;SDS011;2782;52.362;10.012;2022-09-16T11:11:21;4.33;;;0.47;;
5519;SDS011;2782;52.362;10.012;2022-09-16T11:18:29;2.20;;;0.40;;
5519;SDS011;2782;52.362;10.012;2022-09-16T11:25:34;2.63;;;0.30;;
5519;SDS011;2782;52.362;10.012;2022-09-16T11:32:27;1.90;;;0.30;;
5519;SDS011;2782;52.362;10.012;2022-09-16T11:39:19;2.00;;;0.47;;
5519;SDS011;2782;52.362;10.012;2022-09-16T11:46:21;1.63;;;0.30;;
5519;SDS011;2782;52.362;10.012;2022-09-16T11:53:12;0.70;;;0.20;;
5519;SDS011;2782;52.362;10.012;2022-09-16T12:00:04;0.60;;;0.30;;
5519;SDS011;2782;52.362;10.012;2022-09-16T12:06:53;1.43;;;0.20;;
5519;SDS011;2782;52.362;10.012;2022-09-16T12:13:43;3.00;;;0.40;;
5519;SDS011;2782;52.362;10.012;2022-09-16T12:20:29;2.13;;;0.20;;
5519;SDS011;2782;52.362;10.012;2022-09-16T12:27:19;1.27;;;0.20;;
5519;SDS011;2782;52.362;10.012;2022-09-16T12:34:14;0.70;;;0.33;;
5519;SDS011;2782;52.362;10.012;2022-09-16T12:41:02;1.07;;;0.30;;
5519;SDS011;2782;52.362;10.012;2022-09-16T12:48:00;0.83;;;0.20;;
5519;SDS011;2782;52.362;10.012;2022-09-16T12:55:01;0.80;;;0.20;;
5519;SDS011;2782;52.362;10.012;2022-09-16T13:02:15;2.60;;;0.33;;
5519;SDS011;2782;52.362;10.012;2022-09-16T13:09:10;2.63;;;0.30;;
5519;SDS011;2782;52.362;10.012;2022-09-16T13:16:00;1.07;;;0.30;;
5519;SDS011;2782;52.362;10.012;2022-09-16T13:22:44;5.10;;;0.43;;
5519;SDS011;2782;52.362;10.012;2022-09-16T13:29:39;2.67;;;0.30;;
5519;SDS011;2782;52.362;10.012;2022-09-16T13:36:30;4.53;;;0.40;;
5519;SDS011;2782;52.362;10.012;2022-09-16T13:43:12;2.47;;;0.30;;
5519;SDS011;2782;52.362;10.012;2022-09-16T13:49:57;6.37;;;0.40;;
5519;SDS011;2782;52.362;10.012;2022-09-16T13:56:47;2.63;;;0.30;;
5519;SDS011;2782;52.362;10.012;2022-09-16T14:03:41;4.50;;;0.30;;
5519;SDS011;2782;52.362;10.012;2022-09-16T14:10:36;4.40;;;0.30;;
5519;SDS011;2782;52.362;10.012;2022-09-16T14:17:23;13.57;;;2.13;;
5519;SDS011;2782;52.362;10.012;2022-09-16T14:24:12;4.83;;;1.13;;
5519;SDS011;2782;52.362;10.012;2022-09-16T14:31:00;2.50;;;0.50;;
5519;SDS011;2782;52.362;10.012;2022-09-16T14:37:46;2.10;;;0.30;;
5519;SDS011;2782;52.362;10.012;2022-09-16T14:44:31;1.53;;;0.20;;
5519;SDS011;2782;52.362;10.012;2022-09-16T14:51:19;1.93;;;0.57;;
5519;SDS011;2782;52.362;10.012;2022-09-16T14:58:03;1.83;;;0.30;;
5519;SDS011;2782;52.362;10.012;2022-09-16T15:04:46;2.10;;;0.20;;
5519;SDS011;2782;52.362;10.012;2022-09-16T15:11:35;2.20;;;0.30;;
5519;SDS011;2782;52.362;10.012;2022-09-16T15:18:27;13.20;;;0.40;;
5519;SDS011;2782;52.362;10.012;2022-09-16T15:25:16;4.93;;;0.60;;
5519;SDS011;2782;52.362;10.012;2022-09-16T15:32:13;9.80;;;0.60;;
5519;SDS011;2782;52.362;10.012;2022-09-16T15:38:57;8.40;;;0.70;;
5519;SDS011;2782;52.362;10.012;2022-09-16T15:45:39;2.83;;;0.30;;
5519;SDS011;2782;52.362;10.012;2022-09-16T15:52:23;8.93;;;0.50;;
5519;SDS011;2782;52.362;10.012;2022-09-16T15:59:06;6.67;;;0.30;;
5519;SDS011;2782;52.362;10.012;2022-09-16T16:06:02;3.57;;;0.63;;
5519;SDS011;2782;52.362;10.012;2022-09-16T16:12:45;2.33;;;0.40;;
5519;SDS011;2782;52.362;10.012;2022-09-16T16:19:28;4.17;;;0.30;;
5519;SDS011;2782;52.362;10.012;2022-09-16T16:26:10;2.30;;;0.60;;
5519;SDS011;2782;52.362;10.012;2022-09-16T16:32:53;6.33;;;0.50;;
5519;SDS011;2782;52.362;10.012;2022-09-16T16:39:34;7.40;;;0.63;;
5519;SDS011;2782;52.362;10.012;2022-09-16T16:46:16;6.83;;;1.37;;
5519;SDS011;2782;52.362;10.012;2022-09-16T16:52:59;9.03;;;1.30;;
5519;SDS011;2782;52.362;10.012;2022-09-16T16:59:41;5.23;;;1.00;;
5519;SDS011;2782;52.362;10.012;2022-09-16T17:06:22;8.83;;;1.47;;
5519;SDS011;2782;52.362;10.012;2022-09-16T17:13:05;8.27;;;1.87;;
5519;SDS011;2782;52.362;10.012;2022-09-16T17:19:47;11.40;;;2.07;;
5519;SDS011;2782;52.362;10.012;2022-09-16T17:26:29;19.83;;;3.40;;
5519;SDS011;2782;52.362;10.012;2022-09-16T17:33:11;16.47;;;2.80;;
5519;SDS011;2782;52.362;10.012;2022-09-16T17:39:53;13.47;;;3.50;;
5519;SDS011;2782;52.362;10.012;2022-09-16T17:46:35;18.63;;;3.20;;
5519;SDS011;2782;52.362;10.012;2022-09-16T17:53:19;13.00;;;3.63;;
5519;SDS011;2782;52.362;10.012;2022-09-16T18:00:01;7.33;;;2.73;;
5519;SDS011;2782;52.362;10.012;2022-09-16T18:06:44;11.70;;;2.50;;
5519;SDS011;2782;52.362;10.012;2022-09-16T18:13:28;17.77;;;1.70;;
5519;SDS011;2782;52.362;10.012;2022-09-16T18:20:09;7.90;;;1.60;;
5519;SDS011;2782;52.362;10.012;2022-09-16T18:26:51;24.07;;;1.60;;
5519;SDS011;2782;52.362;10.012;2022-09-16T18:33:34;6.50;;;1.43;;
5519;SDS011;2782;52.362;10.012;2022-09-16T18:40:16;6.60;;;1.00;;
5519;SDS011;2782;52.362;10.012;2022-09-16T18:46:57;5.30;;;1.30;;
5519;SDS011;2782;52.362;10.012;2022-09-16T18:53:41;7.97;;;1.53;;
5519;SDS011;2782;52.362;10.012;2022-09-16T19:00:22;8.47;;;1.20;;
5519;SDS011;2782;52.362;10.012;2022-09-16T19:07:04;7.87;;;1.03;;
5519;SDS011;2782;52.362;10.012;2022-09-16T19:13:48;9.77;;;1.00;;
5519;SDS011;2782;52.362;10.012;2022-09-16T19:20:30;26.97;;;5.40;;
5519;SDS011;2782;52.362;10.012;2022-09-16T19:27:12;21.30;;;7.10;;
5519;SDS011;2782;52.362;10.012;2022-09-16T19:33:57;24.30;;;6.97;;
5519;SDS011;2782;52.362;10.012;2022-09-16T19:40:39;22.97;;;6.57;;
5519;SDS011;2782;52.362;10.012;2022-09-16T19:47:20;26.43;;;6.87;;
5519;SDS011;2782;52.362;10.012;2022-09-16T19:54:03;37.37;;;6.07;;
5519;SDS011;2782;52.362;10.012;2022-09-16T20:00:45;15.93;;;4.77;;
5519;SDS011;2782;52.362;10.012;2022-09-16T20:07:28;21.20;;;5.30;;
5519;SDS011;2782;52.362;10.012;2022-09-16T20:14:13;18.83;;;4.53;;
5519;SDS011;2782;52.362;10.012;2022-09-16T20:21:00;17.03;;;5.07;;
5519;SDS011;2782;52.362;10.012;2022-09-16T20:27:43;11.37;;;4.10;;
5519;SDS011;2782;52.362;10.012;2022-09-16T20:34:26;21.03;;;4.10;;
5519;SDS011;2782;52.362;10.012;2022-09-16T20:41:09;27.07;;;3.30;;
5519;SDS011;2782;52.362;10.012;2022-09-16T20:47:51;14.80;;;3.60;;
5519;SDS011;2782;52.362;10.012;2022-09-16T20:54:34;12.57;;;3.50;;
5519;SDS011;2782;52.362;10.012;2022-09-16T21:01:17;18.37;;;4.10;;
5519;SDS011;2782;52.362;10.012;2022-09-16T21:07:59;11.00;;;2.37;;
5519;SDS011;2782;52.362;10.012;2022-09-16T21:14:43;10.27;;;2.60;;
5519;SDS011;2782;52.362;10.012;2022-09-16T21:21:25;10.43;;;2.50;;
5519;SDS011;2782;52.362;10.012;2022-09-16T21:28:08;12.30;;;2.07;;
5519;SDS011;2782;52.362;10.012;2022-09-16T21:34:51;8.27;;;2.77;;
5519;SDS011;2782;52.362;10.012;2022-09-16T21:41:33;9.93;;;2.00;;
5519;SDS011;2782;52.362;10.012;2022-09-16T21:48:14;6.60;;;2.03;;
5519;SDS011;2782;52.362;10.012;2022-09-16T21:54:59;6.90;;;2.40;;
5519;SDS011;2782;52.362;10.012;2022-09-16T22:01:41;6.70;;;2.00;;
5519;SDS011;2782;52.362;10.012;2022-09-16T22:08:22;7.17;;;2.03;;
5519;SDS011;2782;52.362;10.012;2022-09-16T22:15:06;6.53;;;1.67;;
5519;SDS011;2782;52.362;10.012;2022-09-16T22:21:49;6.50;;;1.90;;
5519;SDS011;2782;52.362;10.012;2022-09-16T22:28:31;9.30;;;1.83;;
5519;SDS011;2782;52.362;10.012;2022-09-16T22:35:14;5.20;;;1.70;;
5519;SDS011;2782;52.362;10.012;2022-09-16T22:41:56;5.73;;;1.90;;
5519;SDS011;2782;52.362;10.012;2022-09-16T22:48:37;2.93;;;1.20;;
5519;SDS011;2782;52.362;10.012;2022-09-16T22:55:21;4.20;;;1.27;;
5519;SDS011;2782;52.362;10.012;2022-09-16T23:02:02;2.43;;;0.67;;
5519;SDS011;2782;52.362;10.012;2022-09-16T23:08:45;5.10;;;1.67;;
5519;SDS011;2782;52.362;10.012;2022-09-16T23:15:28;2.30;;;0.77;;
5519;SDS011;2782;52.362;10.012;2022-09-16T23:22:09;1.97;;;1.00;;
5519;SDS011;2782;52.362;10.012;2022-09-16T23:28:52;4.63;;;0.90;;
5519;SDS011;2782;52.362;10.012;2022-09-16T23:35:42;2.20;;;1.10;;
5519;SDS011;2782;52.362;10.012;2022-09-16T23:42:26;0.90;;;0.63;;
5519;SDS011;2782;52.362;10.012;2022-09-16T23:49:08;3.60;;;1.40;;
5519;SDS011;2782;52.362;10.012;2022-09-16T23:55:52;1.63;;;0.90;;
